WetterOnline ( http://www.wetteronline.de )

Wetter aktuell Denkendorf

Aktuelles Wetter: Gelbelsee (539m)

6-stündlich | Neueste Meldungen
Ortszeit Temperatur Wetter
Mo, 24.09. 8:00 6.1° C leicht bewölkt
Mo, 24.09. 2:00 7.5° C Sprühregen
So, 23.09. 20:00 -° C leichter Regen
So, 23.09. 14:00 17.6° C bewölkt
So, 23.09. 8:00 10.5° C Sprühregen
So, 23.09. 2:00 11.0° C bedeckt
Sa, 22.09. 20:00 13.4° C bewölkt
Sa, 22.09. 14:00 14.5° C wolkig
Ortszeit Temperatur Wetter
Mo, 24.09. 13:00 10.3° C leicht bewölkt
Mo, 24.09. 12:50 10.3° C leicht bewölkt
Mo, 24.09. 12:40 9.6° C leicht bewölkt
Mo, 24.09. 12:30 9.6° C wolkig
Mo, 24.09. 12:20 9.6° C wolkig
Mo, 24.09. 12:10 9.0° C wolkig
Mo, 24.09. 12:00 9.4° C wolkig
Mo, 24.09. 11:30 9.0° C bewölkt
Mo, 24.09. 11:00 8.8° C bewölkt
Mo, 24.09. 10:30 7.9° C wolkig
Mo, 24.09. 10:00 7.3° C bewölkt
Ortszeit Relative Feuchte Sichtweite
Mo, 24.09. 8:00 90% 16 km
Mo, 24.09. 2:00 93% 5.0 km
So, 23.09. 20:00 - 17 km
So, 23.09. 14:00 93% 35 km
So, 23.09. 8:00 98% 2.6 km
So, 23.09. 2:00 73% 70 km
Sa, 22.09. 20:00 60% 70 km
Sa, 22.09. 14:00 50% 35 km
Ortszeit Relative Feuchte Sichtweite
Mo, 24.09. 13:00 62% 30 km
Mo, 24.09. 12:50 62% -
Mo, 24.09. 12:40 62% -
Mo, 24.09. 12:30 64% 45 km
Mo, 24.09. 12:20 64% -
Mo, 24.09. 12:10 68% -
Mo, 24.09. 12:00 68% 28 km
Mo, 24.09. 11:30 74% 40 km
Mo, 24.09. 11:00 76% 29 km
Mo, 24.09. 10:30 79% 28 km
Mo, 24.09. 10:00 84% 35 km
Ortszeit Niederschlagsmenge Niederschlagsart
Mo, 24.09. 8:00 9 l/m2 in 12 Std. Regen
Mo, 24.09. 2:00 9 l/m2 in 6 Std. Regen
So, 23.09. 20:00 5 l/m2 in 12 Std. Regenschauer
So, 23.09. 14:00 0.6 l/m2 in 6 Std. Regen
So, 23.09. 8:00 1 l/m2 in 12 Std. Regen
So, 23.09. 2:00 0.4 l/m2 in 6 Std. Regen
Sa, 22.09. 20:00 0.0 l/m2 in 12 Std. -
Sa, 22.09. 14:00 0.0 l/m2 in 6 Std. -
Ortszeit Niederschlagsmenge Niederschlagsart
Mo, 24.09. 13:00 0.0 l/m2 in 1 Std. -
Mo, 24.09. 12:50 keine Meldung -
Mo, 24.09. 12:40 keine Meldung -
Mo, 24.09. 12:30 0.0 l/m2 in 1 Std. -
Mo, 24.09. 12:20 keine Meldung -
Mo, 24.09. 12:10 keine Meldung -
Mo, 24.09. 12:00 0.0 l/m2 in 1 Std. -
Mo, 24.09. 11:30 0.0 l/m2 in 1 Std. -
Mo, 24.09. 11:00 0.0 l/m2 in 1 Std. -
Mo, 24.09. 10:30 0.0 l/m2 in 1 Std. -
Mo, 24.09. 10:00 0.0 l/m2 in 1 Std. -
Ortszeit Stärke Spitze Richtung
km/h Bft. km/h Grad Sektor
Mo, 24.09. 8:00 20 4 37 320° NW
Mo, 24.09. 2:00 19 3 67 320° NW
So, 23.09. 20:00 20 4 104 280° W
So, 23.09. 14:00 14 3 36 230° SW
So, 23.09. 8:00 11 2 18 190° S
So, 23.09. 2:00 11 2 32 280° W
Sa, 22.09. 20:00 4 1 29 200° S
Sa, 22.09. 14:00 17 3 30 250° W
Ortszeit Stärke Spitze Richtung
km/h Bft. km/h Grad Sektor
Mo, 24.09. 13:00 24 4 41 300° NW
Mo, 24.09. 12:50 24 4 - 300° NW
Mo, 24.09. 12:40 25 4 - 320° NW
Mo, 24.09. 12:30 22 4 36 320° NW
Mo, 24.09. 12:20 22 4 - 320° NW
Mo, 24.09. 12:10 22 4 - 320° NW
Mo, 24.09. 12:00 20 4 44 310° NW
Mo, 24.09. 11:30 17 3 37 320° NW
Mo, 24.09. 11:00 20 4 37 310° NW
Mo, 24.09. 10:30 22 4 36 300° NW
Mo, 24.09. 10:00 18 3 36 310° NW
Ortszeit Untergrenze Bedeckung Gattung
total tief tief mittel hoch
Mo, 24.09. 8:00 330 m 4/8 4/8 - - -
Mo, 24.09. 2:00 150 m 8/8 8/8 - - -
So, 23.09. 20:00 390 m 8/8 2/8 - - -
So, 23.09. 14:00 180 m 7/8 7/8 - - -
So, 23.09. 8:00 90 m 7/8 7/8 - - -
So, 23.09. 2:00 1500 m 8/8 8/8 - - -
Sa, 22.09. 20:00 2100 m 8/8 4/8 - - -
Sa, 22.09. 14:00 1290 m 7/8 3/8 - - -
Ortszeit Bedeckungsgrad in Achtel und Wolkenuntergrenze
Mo, 24.09. 13:00 2(960m) 3(1500m)
Mo, 24.09. 12:50 2(960m) 2(1170m) 3(1500m)
Mo, 24.09. 12:40 3(990m) 4(1320m)
Mo, 24.09. 12:30 3(840m) 6(1230m) 6(1470m)
Mo, 24.09. 12:20 3(840m) 6(1230m) 6(1470m)
Mo, 24.09. 12:10 4(810m) 5(1020m) 6(1230m)
Mo, 24.09. 12:00 4(780m) 5(960m) 5(1230m)
Mo, 24.09. 11:30 5(720m) 7(930m) 7(1110m)
Mo, 24.09. 11:00 5(600m) 6(810m) 7(1350m)
Mo, 24.09. 10:30 6(540m) 6(720m)
Mo, 24.09. 10:00 7(480m) 7(630m)
Ortszeit Luftdruck NN (hPa) Tendenz (hPa in 3 Std.)
Mo, 24.09. 8:00 1029 + 2,1
Mo, 24.09. 2:00 1023 + 7,6
So, 23.09. 20:00 1008 + 0,4
So, 23.09. 14:00 1012 - 2,1
So, 23.09. 8:00 1017 - 2,7
So, 23.09. 2:00 1021 - 0,1
Sa, 22.09. 20:00 1020 - 0,9
Sa, 22.09. 14:00 1023 - 0,9
Ortszeit Luftdruck NN (hPa) Tendenz (hPa in 3 Std.)
Mo, 24.09. 13:00 1032 + 1,5
Mo, 24.09. 12:50 1032 keine Meldung
Mo, 24.09. 12:40 1032 keine Meldung
Mo, 24.09. 12:30 1032 + 1,9
Mo, 24.09. 12:20 1032 keine Meldung
Mo, 24.09. 12:10 1032 keine Meldung
Mo, 24.09. 12:00 1032 + 2,3
Mo, 24.09. 11:30 1032 + 3,0
Mo, 24.09. 11:00 1032 + 3,4
Mo, 24.09. 10:30 1031 + 3,4
Mo, 24.09. 10:00 1031 + 3,4
Ortszeit Schneehöhe (cm)
Mo, 24.09. 8:00 -
Mo, 24.09. 2:00 -
So, 23.09. 20:00 -
So, 23.09. 14:00 -
So, 23.09. 8:00 -
So, 23.09. 2:00 -
Sa, 22.09. 20:00 -
Sa, 22.09. 14:00 -
Ortszeit Schneehöhe (cm)
Mo, 24.09. 13:00 -
Mo, 24.09. 12:50 -
Mo, 24.09. 12:40 -
Mo, 24.09. 12:30 -
Mo, 24.09. 12:20 -
Mo, 24.09. 12:10 -
Mo, 24.09. 12:00 -
Mo, 24.09. 11:30 -
Mo, 24.09. 11:00 -
Mo, 24.09. 10:30 -
Mo, 24.09. 10:00 -
Link zu dieser Seite / Seite empfehlen

Das Wetter in ...